sensor_id;sensor_type;location;lat;lon;timestamp;temperature;humidity
2783;DHT22;1399;47.072;15.452;2023-04-15T00:00:08;12.30;58.30
2783;DHT22;1399;47.072;15.452;2023-04-15T00:02:34;12.30;58.20
2783;DHT22;1399;47.072;15.452;2023-04-15T00:05:01;12.30;58.30
2783;DHT22;1399;47.072;15.452;2023-04-15T00:07:27;12.30;58.30
2783;DHT22;1399;47.072;15.452;2023-04-15T00:09:54;12.30;58.30
2783;DHT22;1399;47.072;15.452;2023-04-15T00:12:26;12.30;58.30
2783;DHT22;1399;47.072;15.452;2023-04-15T00:14:52;12.30;58.40
2783;DHT22;1399;47.072;15.452;2023-04-15T00:17:17;12.30;58.40
2783;DHT22;1399;47.072;15.452;2023-04-15T00:19:45;12.30;58.40
2783;DHT22;1399;47.072;15.452;2023-04-15T00:22:11;12.30;58.40
2783;DHT22;1399;47.072;15.452;2023-04-15T00:24:37;12.30;58.40
2783;DHT22;1399;47.072;15.452;2023-04-15T00:27:03;12.30;58.40
2783;DHT22;1399;47.072;15.452;2023-04-15T00:29:29;12.30;58.40
2783;DHT22;1399;47.072;15.452;2023-04-15T00:31:55;12.30;58.40
2783;DHT22;1399;47.072;15.452;2023-04-15T00:34:25;12.30;58.30
2783;DHT22;1399;47.072;15.452;2023-04-15T00:36:52;12.30;58.40
2783;DHT22;1399;47.072;15.452;2023-04-15T00:39:18;12.30;58.30
2783;DHT22;1399;47.072;15.452;2023-04-15T00:41:44;12.30;58.30
2783;DHT22;1399;47.072;15.452;2023-04-15T00:44:10;12.30;58.30
2783;DHT22;1399;47.072;15.452;2023-04-15T00:46:37;12.30;58.30
2783;DHT22;1399;47.072;15.452;2023-04-15T00:49:05;12.30;58.30
2783;DHT22;1399;47.072;15.452;2023-04-15T00:51:32;12.30;58.30
2783;DHT22;1399;47.072;15.452;2023-04-15T00:54:04;12.20;58.20
2783;DHT22;1399;47.072;15.452;2023-04-15T00:56:30;12.20;58.20
2783;DHT22;1399;47.072;15.452;2023-04-15T00:59:00;12.30;58.30
2783;DHT22;1399;47.072;15.452;2023-04-15T01:01:26;12.20;58.30
2783;DHT22;1399;47.072;15.452;2023-04-15T01:03:55;12.20;58.30
2783;DHT22;1399;47.072;15.452;2023-04-15T01:06:23;12.20;58.30
2783;DHT22;1399;47.072;15.452;2023-04-15T01:08:48;12.20;58.30
2783;DHT22;1399;47.072;15.452;2023-04-15T01:11:15;12.20;58.30
2783;DHT22;1399;47.072;15.452;2023-04-15T01:13:41;12.20;58.30
2783;DHT22;1399;47.072;15.452;2023-04-15T01:16:08;12.20;58.30
2783;DHT22;1399;47.072;15.452;2023-04-15T01:18:34;12.20;58.20
2783;DHT22;1399;47.072;15.452;2023-04-15T01:21:02;12.20;58.30
2783;DHT22;1399;47.072;15.452;2023-04-15T01:23:29;12.20;58.20
2783;DHT22;1399;47.072;15.452;2023-04-15T01:25:55;12.20;58.30
2783;DHT22;1399;47.072;15.452;2023-04-15T01:28:22;12.20;58.30
2783;DHT22;1399;47.072;15.452;2023-04-15T01:30:47;12.20;58.30
2783;DHT22;1399;47.072;15.452;2023-04-15T01:33:13;12.20;58.30
2783;DHT22;1399;47.072;15.452;2023-04-15T01:35:39;12.20;58.30
2783;DHT22;1399;47.072;15.452;2023-04-15T01:38:07;12.20;58.30
2783;DHT22;1399;47.072;15.452;2023-04-15T01:40:33;12.20;58.40
2783;DHT22;1399;47.072;15.452;2023-04-15T01:43:00;12.20;58.30
2783;DHT22;1399;47.072;15.452;2023-04-15T01:45:27;12.20;58.30
2783;DHT22;1399;47.072;15.452;2023-04-15T01:47:53;12.20;58.30
2783;DHT22;1399;47.072;15.452;2023-04-15T01:50:19;12.20;58.30
2783;DHT22;1399;47.072;15.452;2023-04-15T01:52:45;12.20;58.30
2783;DHT22;1399;47.072;15.452;2023-04-15T01:55:12;12.10;58.30
2783;DHT22;1399;47.072;15.452;2023-04-15T01:57:38;12.10;58.30
2783;DHT22;1399;47.072;15.452;2023-04-15T02:00:05;12.10;58.40
2783;DHT22;1399;47.072;15.452;2023-04-15T02:02:32;12.10;58.40
2783;DHT22;1399;47.072;15.452;2023-04-15T02:04:58;12.10;58.40
2783;DHT22;1399;47.072;15.452;2023-04-15T02:07:25;12.10;58.40
2783;DHT22;1399;47.072;15.452;2023-04-15T02:09:51;12.10;58.40
2783;DHT22;1399;47.072;15.452;2023-04-15T02:12:17;12.10;58.40
2783;DHT22;1399;47.072;15.452;2023-04-15T02:14:43;12.10;58.50
2783;DHT22;1399;47.072;15.452;2023-04-15T02:17:09;12.10;58.50
2783;DHT22;1399;47.072;15.452;2023-04-15T02:19:35;12.10;58.40
2783;DHT22;1399;47.072;15.452;2023-04-15T02:22:01;12.10;58.50
2783;DHT22;1399;47.072;15.452;2023-04-15T02:24:28;12.10;58.50
2783;DHT22;1399;47.072;15.452;2023-04-15T02:26:54;12.10;58.50
2783;DHT22;1399;47.072;15.452;2023-04-15T02:29:20;12.00;58.40
2783;DHT22;1399;47.072;15.452;2023-04-15T02:31:47;12.00;58.50
2783;DHT22;1399;47.072;15.452;2023-04-15T02:34:13;12.00;58.50
2783;DHT22;1399;47.072;15.452;2023-04-15T02:36:39;12.00;58.50
2783;DHT22;1399;47.072;15.452;2023-04-15T02:39:05;12.00;58.50
2783;DHT22;1399;47.072;15.452;2023-04-15T02:41:31;12.00;58.60
2783;DHT22;1399;47.072;15.452;2023-04-15T02:43:57;12.00;58.50
2783;DHT22;1399;47.072;15.452;2023-04-15T02:46:22;12.00;59.10
2783;DHT22;1399;47.072;15.452;2023-04-15T02:48:49;12.00;58.50
2783;DHT22;1399;47.072;15.452;2023-04-15T02:51:17;12.00;58.60
2783;DHT22;1399;47.072;15.452;2023-04-15T02:53:47;12.00;58.60
2783;DHT22;1399;47.072;15.452;2023-04-15T02:56:13;12.00;58.50
2783;DHT22;1399;47.072;15.452;2023-04-15T02:58:41;12.00;58.50
2783;DHT22;1399;47.072;15.452;2023-04-15T03:01:07;12.00;58.50
2783;DHT22;1399;47.072;15.452;2023-04-15T03:03:34;12.00;58.50
2783;DHT22;1399;47.072;15.452;2023-04-15T03:06:00;12.00;58.50
2783;DHT22;1399;47.072;15.452;2023-04-15T03:08:26;12.00;58.60
2783;DHT22;1399;47.072;15.452;2023-04-15T03:10:52;11.90;58.40
2783;DHT22;1399;47.072;15.452;2023-04-15T03:13:19;11.90;58.40
2783;DHT22;1399;47.072;15.452;2023-04-15T03:15:46;12.00;58.60
2783;DHT22;1399;47.072;15.452;2023-04-15T03:18:12;12.00;58.50
2783;DHT22;1399;47.072;15.452;2023-04-15T03:20:38;12.00;58.50
2783;DHT22;1399;47.072;15.452;2023-04-15T03:23:04;11.90;58.50
2783;DHT22;1399;47.072;15.452;2023-04-15T03:25:30;11.90;58.50
2783;DHT22;1399;47.072;15.452;2023-04-15T03:27:56;11.90;58.50
2783;DHT22;1399;47.072;15.452;2023-04-15T03:30:22;11.90;58.50
2783;DHT22;1399;47.072;15.452;2023-04-15T03:32:48;12.00;58.60
2783;DHT22;1399;47.072;15.452;2023-04-15T03:35:14;11.90;58.50
2783;DHT22;1399;47.072;15.452;2023-04-15T03:37:40;11.90;58.50
2783;DHT22;1399;47.072;15.452;2023-04-15T03:40:06;11.90;58.50
2783;DHT22;1399;47.072;15.452;2023-04-15T03:42:32;11.90;58.50
2783;DHT22;1399;47.072;15.452;2023-04-15T03:44:58;11.90;58.50
2783;DHT22;1399;47.072;15.452;2023-04-15T03:47:24;11.90;58.40
2783;DHT22;1399;47.072;15.452;2023-04-15T03:49:50;11.90;58.50
2783;DHT22;1399;47.072;15.452;2023-04-15T03:52:15;11.90;58.50
2783;DHT22;1399;47.072;15.452;2023-04-15T03:54:41;11.90;58.50
2783;DHT22;1399;47.072;15.452;2023-04-15T03:57:07;11.90;58.50
2783;DHT22;1399;47.072;15.452;2023-04-15T03:59:33;11.90;58.50
2783;DHT22;1399;47.072;15.452;2023-04-15T04:01:59;11.90;58.50
2783;DHT22;1399;47.072;15.452;2023-04-15T04:04:24;11.90;58.50
2783;DHT22;1399;47.072;15.452;2023-04-15T04:06:50;11.90;58.50
2783;DHT22;1399;47.072;15.452;2023-04-15T04:09:16;11.90;58.60
2783;DHT22;1399;47.072;15.452;2023-04-15T04:11:42;11.90;58.60
2783;DHT22;1399;47.072;15.452;2023-04-15T04:14:07;11.90;58.60
2783;DHT22;1399;47.072;15.452;2023-04-15T04:16:33;11.90;58.60
2783;DHT22;1399;47.072;15.452;2023-04-15T04:18:59;11.90;58.60
2783;DHT22;1399;47.072;15.452;2023-04-15T04:21:25;11.90;58.60
2783;DHT22;1399;47.072;15.452;2023-04-15T04:23:51;11.90;58.60
2783;DHT22;1399;47.072;15.452;2023-04-15T04:26:17;11.90;58.60
2783;DHT22;1399;47.072;15.452;2023-04-15T04:28:44;11.90;58.60
2783;DHT22;1399;47.072;15.452;2023-04-15T04:31:11;11.90;58.60
2783;DHT22;1399;47.072;15.452;2023-04-15T04:33:36;11.90;58.60
2783;DHT22;1399;47.072;15.452;2023-04-15T04:36:03;11.90;58.60
2783;DHT22;1399;47.072;15.452;2023-04-15T04:38:29;11.90;58.60
2783;DHT22;1399;47.072;15.452;2023-04-15T04:40:55;11.90;58.60
2783;DHT22;1399;47.072;15.452;2023-04-15T04:43:21;11.90;58.60
2783;DHT22;1399;47.072;15.452;2023-04-15T04:45:46;11.90;58.60
2783;DHT22;1399;47.072;15.452;2023-04-15T04:48:12;11.90;58.60
2783;DHT22;1399;47.072;15.452;2023-04-15T04:50:38;11.90;58.60
2783;DHT22;1399;47.072;15.452;2023-04-15T04:53:04;11.90;58.60
2783;DHT22;1399;47.072;15.452;2023-04-15T04:55:30;11.90;58.60
2783;DHT22;1399;47.072;15.452;2023-04-15T04:57:57;11.90;58.60
2783;DHT22;1399;47.072;15.452;2023-04-15T05:00:23;11.90;58.60
2783;DHT22;1399;47.072;15.452;2023-04-15T05:02:50;11.90;58.60
2783;DHT22;1399;47.072;15.452;2023-04-15T05:05:16;11.90;58.60
2783;DHT22;1399;47.072;15.452;2023-04-15T05:07:41;11.90;58.50
2783;DHT22;1399;47.072;15.452;2023-04-15T05:10:08;11.90;58.50
2783;DHT22;1399;47.072;15.452;2023-04-15T05:12:35;11.90;58.50
2783;DHT22;1399;47.072;15.452;2023-04-15T05:15:04;11.90;58.50
2783;DHT22;1399;47.072;15.452;2023-04-15T05:17:30;11.90;58.40
2783;DHT22;1399;47.072;15.452;2023-04-15T05:19:57;12.00;58.50
2783;DHT22;1399;47.072;15.452;2023-04-15T05:22:23;11.90;58.40
2783;DHT22;1399;47.072;15.452;2023-04-15T05:24:49;12.00;58.40
2783;DHT22;1399;47.072;15.452;2023-04-15T05:27:15;12.00;58.40
2783;DHT22;1399;47.072;15.452;2023-04-15T05:29:40;12.00;58.40
2783;DHT22;1399;47.072;15.452;2023-04-15T05:32:07;12.00;58.40
2783;DHT22;1399;47.072;15.452;2023-04-15T05:34:32;12.00;58.50
2783;DHT22;1399;47.072;15.452;2023-04-15T05:36:58;12.00;58.50
2783;DHT22;1399;47.072;15.452;2023-04-15T05:39:24;12.00;58.50
2783;DHT22;1399;47.072;15.452;2023-04-15T05:41:50;12.00;58.50
2783;DHT22;1399;47.072;15.452;2023-04-15T05:44:15;12.10;58.50
2783;DHT22;1399;47.072;15.452;2023-04-15T05:46:41;12.10;58.50
2783;DHT22;1399;47.072;15.452;2023-04-15T05:49:07;12.10;58.50
2783;DHT22;1399;47.072;15.452;2023-04-15T05:51:33;12.10;58.50
2783;DHT22;1399;47.072;15.452;2023-04-15T05:53:59;12.10;58.40
2783;DHT22;1399;47.072;15.452;2023-04-15T05:56:25;12.10;58.40
2783;DHT22;1399;47.072;15.452;2023-04-15T05:58:51;12.20;58.50
2783;DHT22;1399;47.072;15.452;2023-04-15T06:01:17;12.10;58.40
2783;DHT22;1399;47.072;15.452;2023-04-15T06:03:43;12.20;58.40
2783;DHT22;1399;47.072;15.452;2023-04-15T06:06:09;12.20;58.40
2783;DHT22;1399;47.072;15.452;2023-04-15T06:08:35;12.20;58.40
2783;DHT22;1399;47.072;15.452;2023-04-15T06:11:01;12.20;58.40
2783;DHT22;1399;47.072;15.452;2023-04-15T06:13:26;12.30;58.40
2783;DHT22;1399;47.072;15.452;2023-04-15T06:15:52;12.30;58.30
2783;DHT22;1399;47.072;15.452;2023-04-15T06:18:18;12.30;58.20
2783;DHT22;1399;47.072;15.452;2023-04-15T06:20:44;12.40;58.20
2783;DHT22;1399;47.072;15.452;2023-04-15T06:23:10;12.40;58.10
2783;DHT22;1399;47.072;15.452;2023-04-15T06:25:36;12.40;58.10
2783;DHT22;1399;47.072;15.452;2023-04-15T06:28:02;12.40;58.00
2783;DHT22;1399;47.072;15.452;2023-04-15T06:30:28;12.40;57.90
2783;DHT22;1399;47.072;15.452;2023-04-15T06:32:54;12.50;57.90
2783;DHT22;1399;47.072;15.452;2023-04-15T06:35:20;12.50;57.90
2783;DHT22;1399;47.072;15.452;2023-04-15T06:37:45;12.50;57.90
2783;DHT22;1399;47.072;15.452;2023-04-15T06:40:11;12.50;58.00
2783;DHT22;1399;47.072;15.452;2023-04-15T06:42:37;12.50;58.00
2783;DHT22;1399;47.072;15.452;2023-04-15T06:45:03;12.50;58.10
2783;DHT22;1399;47.072;15.452;2023-04-15T06:47:29;12.60;58.10
2783;DHT22;1399;47.072;15.452;2023-04-15T06:49:55;12.60;58.10
2783;DHT22;1399;47.072;15.452;2023-04-15T06:52:21;12.60;58.10
2783;DHT22;1399;47.072;15.452;2023-04-15T06:54:46;12.60;58.00
2783;DHT22;1399;47.072;15.452;2023-04-15T06:57:12;12.60;58.00
2783;DHT22;1399;47.072;15.452;2023-04-15T06:59:38;12.70;58.00
2783;DHT22;1399;47.072;15.452;2023-04-15T07:02:03;12.70;58.10
2783;DHT22;1399;47.072;15.452;2023-04-15T07:04:29;12.70;58.10
2783;DHT22;1399;47.072;15.452;2023-04-15T07:06:55;12.70;58.00
2783;DHT22;1399;47.072;15.452;2023-04-15T07:09:24;12.80;58.00
2783;DHT22;1399;47.072;15.452;2023-04-15T07:11:50;12.80;57.90
2783;DHT22;1399;47.072;15.452;2023-04-15T07:14:16;12.80;57.80
2783;DHT22;1399;47.072;15.452;2023-04-15T07:16:41;12.80;57.80
2783;DHT22;1399;47.072;15.452;2023-04-15T07:19:07;12.80;57.80
2783;DHT22;1399;47.072;15.452;2023-04-15T07:21:33;12.80;58.40
2783;DHT22;1399;47.072;15.452;2023-04-15T07:23:58;12.80;57.70
2783;DHT22;1399;47.072;15.452;2023-04-15T07:26:24;12.90;57.70
2783;DHT22;1399;47.072;15.452;2023-04-15T07:28:50;12.90;57.70
2783;DHT22;1399;47.072;15.452;2023-04-15T07:31:15;12.90;57.70
2783;DHT22;1399;47.072;15.452;2023-04-15T07:33:42;12.90;57.80
2783;DHT22;1399;47.072;15.452;2023-04-15T07:36:08;12.90;57.90
2783;DHT22;1399;47.072;15.452;2023-04-15T07:38:33;12.90;57.90
2783;DHT22;1399;47.072;15.452;2023-04-15T07:40:59;12.90;57.90
2783;DHT22;1399;47.072;15.452;2023-04-15T07:43:25;12.90;58.00
2783;DHT22;1399;47.072;15.452;2023-04-15T07:45:50;12.90;58.00
2783;DHT22;1399;47.072;15.452;2023-04-15T07:48:16;12.90;58.10
2783;DHT22;1399;47.072;15.452;2023-04-15T07:50:42;13.00;58.00
2783;DHT22;1399;47.072;15.452;2023-04-15T07:53:07;13.00;58.00
2783;DHT22;1399;47.072;15.452;2023-04-15T07:55:33;13.00;58.00
2783;DHT22;1399;47.072;15.452;2023-04-15T07:57:59;13.00;58.10
2783;DHT22;1399;47.072;15.452;2023-04-15T08:00:25;13.00;58.30
2783;DHT22;1399;47.072;15.452;2023-04-15T08:02:51;13.10;58.30
2783;DHT22;1399;47.072;15.452;2023-04-15T08:05:18;13.10;58.20
2783;DHT22;1399;47.072;15.452;2023-04-15T08:07:44;13.20;58.20
2783;DHT22;1399;47.072;15.452;2023-04-15T08:10:10;13.20;57.90
2783;DHT22;1399;47.072;15.452;2023-04-15T08:12:37;13.30;57.90
2783;DHT22;1399;47.072;15.452;2023-04-15T08:15:03;13.30;57.90
2783;DHT22;1399;47.072;15.452;2023-04-15T08:17:29;13.40;57.70
2783;DHT22;1399;47.072;15.452;2023-04-15T08:19:55;13.50;57.80
2783;DHT22;1399;47.072;15.452;2023-04-15T08:22:21;13.60;57.80
2783;DHT22;1399;47.072;15.452;2023-04-15T08:24:47;13.60;57.70
2783;DHT22;1399;47.072;15.452;2023-04-15T08:27:13;13.70;57.60
2783;DHT22;1399;47.072;15.452;2023-04-15T08:29:39;13.70;57.40
2783;DHT22;1399;47.072;15.452;2023-04-15T08:32:05;13.80;57.20
2783;DHT22;1399;47.072;15.452;2023-04-15T08:34:31;13.80;57.00
2783;DHT22;1399;47.072;15.452;2023-04-15T08:36:56;13.80;56.90
2783;DHT22;1399;47.072;15.452;2023-04-15T08:39:22;13.80;56.70
2783;DHT22;1399;47.072;15.452;2023-04-15T08:42:02;13.80;56.70
2783;DHT22;1399;47.072;15.452;2023-04-15T08:44:29;13.90;56.50
2783;DHT22;1399;47.072;15.452;2023-04-15T08:47:01;13.90;56.30
2783;DHT22;1399;47.072;15.452;2023-04-15T08:49:31;14.00;56.30
2783;DHT22;1399;47.072;15.452;2023-04-15T08:51:58;14.00;56.20
2783;DHT22;1399;47.072;15.452;2023-04-15T08:54:25;14.10;56.30
2783;DHT22;1399;47.072;15.452;2023-04-15T08:56:51;14.10;56.40
2783;DHT22;1399;47.072;15.452;2023-04-15T08:59:20;14.10;56.30
2783;DHT22;1399;47.072;15.452;2023-04-15T09:01:47;14.10;56.30
2783;DHT22;1399;47.072;15.452;2023-04-15T09:04:13;14.10;56.30
2783;DHT22;1399;47.072;15.452;2023-04-15T09:06:39;14.20;56.40
2783;DHT22;1399;47.072;15.452;2023-04-15T09:09:05;14.20;56.10
2783;DHT22;1399;47.072;15.452;2023-04-15T09:11:31;14.30;56.10
2783;DHT22;1399;47.072;15.452;2023-04-15T09:13:57;14.30;55.90
2783;DHT22;1399;47.072;15.452;2023-04-15T09:16:23;14.40;56.00
2783;DHT22;1399;47.072;15.452;2023-04-15T09:18:48;14.40;55.90
2783;DHT22;1399;47.072;15.452;2023-04-15T09:21:15;14.50;55.70
2783;DHT22;1399;47.072;15.452;2023-04-15T09:24:00;14.60;55.60
2783;DHT22;1399;47.072;15.452;2023-04-15T09:26:33;14.70;55.60
2783;DHT22;1399;47.072;15.452;2023-04-15T09:29:07;14.80;55.40
2783;DHT22;1399;47.072;15.452;2023-04-15T09:31:33;14.80;55.20
2783;DHT22;1399;47.072;15.452;2023-04-15T09:34:00;14.90;55.10
2783;DHT22;1399;47.072;15.452;2023-04-15T09:36:26;14.90;54.90
2783;DHT22;1399;47.072;15.452;2023-04-15T09:38:58;15.00;54.80
2783;DHT22;1399;47.072;15.452;2023-04-15T09:41:25;15.00;54.60
2783;DHT22;1399;47.072;15.452;2023-04-15T09:43:51;15.00;54.60
2783;DHT22;1399;47.072;15.452;2023-04-15T09:46:17;15.10;54.70
2783;DHT22;1399;47.072;15.452;2023-04-15T09:48:43;15.10;54.50
2783;DHT22;1399;47.072;15.452;2023-04-15T09:51:09;15.20;54.50
2783;DHT22;1399;47.072;15.452;2023-04-15T09:53:36;15.20;54.30
2783;DHT22;1399;47.072;15.452;2023-04-15T09:56:03;15.30;54.30
2783;DHT22;1399;47.072;15.452;2023-04-15T09:58:34;15.30;54.20
2783;DHT22;1399;47.072;15.452;2023-04-15T10:01:02;15.30;54.00
2783;DHT22;1399;47.072;15.452;2023-04-15T10:03:32;15.30;54.10
2783;DHT22;1399;47.072;15.452;2023-04-15T10:06:00;15.30;54.00
2783;DHT22;1399;47.072;15.452;2023-04-15T10:08:31;15.40;54.00
2783;DHT22;1399;47.072;15.452;2023-04-15T10:10:58;15.40;53.80
2783;DHT22;1399;47.072;15.452;2023-04-15T10:13:26;15.50;53.80
2783;DHT22;1399;47.072;15.452;2023-04-15T10:15:59;15.50;53.70
2783;DHT22;1399;47.072;15.452;2023-04-15T10:18:27;15.50;53.60
2783;DHT22;1399;47.072;15.452;2023-04-15T10:20:53;15.60;53.60
2783;DHT22;1399;47.072;15.452;2023-04-15T10:23:21;15.60;53.40
2783;DHT22;1399;47.072;15.452;2023-04-15T10:25:48;15.60;53.30
2783;DHT22;1399;47.072;15.452;2023-04-15T10:28:16;15.60;53.20
2783;DHT22;1399;47.072;15.452;2023-04-15T10:30:42;15.70;53.20
2783;DHT22;1399;47.072;15.452;2023-04-15T10:33:09;15.70;53.10
2783;DHT22;1399;47.072;15.452;2023-04-15T10:35:36;15.70;53.10
2783;DHT22;1399;47.072;15.452;2023-04-15T10:38:02;15.70;53.10
2783;DHT22;1399;47.072;15.452;2023-04-15T10:40:49;15.80;53.10
2783;DHT22;1399;47.072;15.452;2023-04-15T10:43:24;15.80;53.10
2783;DHT22;1399;47.072;15.452;2023-04-15T10:45:52;15.80;53.10
2783;DHT22;1399;47.072;15.452;2023-04-15T10:48:18;15.80;53.00
2783;DHT22;1399;47.072;15.452;2023-04-15T10:50:55;15.80;53.00
2783;DHT22;1399;47.072;15.452;2023-04-15T10:53:28;15.80;53.00
2783;DHT22;1399;47.072;15.452;2023-04-15T10:55:56;15.90;53.00
2783;DHT22;1399;47.072;15.452;2023-04-15T10:58:24;15.90;53.00
2783;DHT22;1399;47.072;15.452;2023-04-15T11:00:52;15.90;53.00
2783;DHT22;1399;47.072;15.452;2023-04-15T11:03:36;15.90;52.90
2783;DHT22;1399;47.072;15.452;2023-04-15T11:06:04;15.90;52.90
2783;DHT22;1399;47.072;15.452;2023-04-15T11:11:18;15.90;52.90
2783;DHT22;1399;47.072;15.452;2023-04-15T11:13:49;15.90;52.90
2783;DHT22;1399;47.072;15.452;2023-04-15T11:16:15;15.90;52.90
2783;DHT22;1399;47.072;15.452;2023-04-15T11:18:41;15.90;52.80
2783;DHT22;1399;47.072;15.452;2023-04-15T11:21:17;16.00;52.80
2783;DHT22;1399;47.072;15.452;2023-04-15T11:23:44;16.00;52.70
2783;DHT22;1399;47.072;15.452;2023-04-15T11:26:12;16.00;52.70
2783;DHT22;1399;47.072;15.452;2023-04-15T11:28:40;16.10;52.60
2783;DHT22;1399;47.072;15.452;2023-04-15T11:31:13;16.10;52.60
2783;DHT22;1399;47.072;15.452;2023-04-15T11:33:53;16.10;52.50
2783;DHT22;1399;47.072;15.452;2023-04-15T11:36:19;16.10;52.40
2783;DHT22;1399;47.072;15.452;2023-04-15T11:38:46;16.20;52.40
2783;DHT22;1399;47.072;15.452;2023-04-15T11:41:12;16.20;52.40
2783;DHT22;1399;47.072;15.452;2023-04-15T11:43:37;16.20;52.30
2783;DHT22;1399;47.072;15.452;2023-04-15T11:46:03;16.30;52.40
2783;DHT22;1399;47.072;15.452;2023-04-15T11:48:34;16.30;52.30
2783;DHT22;1399;47.072;15.452;2023-04-15T11:51:05;16.30;52.30
2783;DHT22;1399;47.072;15.452;2023-04-15T11:56:15;16.30;52.20
2783;DHT22;1399;47.072;15.452;2023-04-15T11:58:41;16.30;52.20
2783;DHT22;1399;47.072;15.452;2023-04-15T12:01:07;16.30;52.10
2783;DHT22;1399;47.072;15.452;2023-04-15T12:06:18;16.30;52.00
2783;DHT22;1399;47.072;15.452;2023-04-15T12:11:27;16.30;51.90
2783;DHT22;1399;47.072;15.452;2023-04-15T12:14:05;16.20;51.80
2783;DHT22;1399;47.072;15.452;2023-04-15T12:16:38;16.20;51.80
2783;DHT22;1399;47.072;15.452;2023-04-15T12:19:08;16.20;51.80
2783;DHT22;1399;47.072;15.452;2023-04-15T12:21:37;16.20;51.80
2783;DHT22;1399;47.072;15.452;2023-04-15T12:24:08;16.20;51.80
2783;DHT22;1399;47.072;15.452;2023-04-15T12:29:07;16.30;51.70
2783;DHT22;1399;47.072;15.452;2023-04-15T12:31:34;16.30;51.60
2783;DHT22;1399;47.072;15.452;2023-04-15T12:34:01;16.30;51.50
2783;DHT22;1399;47.072;15.452;2023-04-15T12:36:30;16.40;51.50
2783;DHT22;1399;47.072;15.452;2023-04-15T12:39:03;16.40;51.30
2783;DHT22;1399;47.072;15.452;2023-04-15T12:41:30;16.40;51.10
2783;DHT22;1399;47.072;15.452;2023-04-15T12:43:56;16.50;51.20
2783;DHT22;1399;47.072;15.452;2023-04-15T12:46:22;16.50;51.10
2783;DHT22;1399;47.072;15.452;2023-04-15T12:48:48;16.50;51.10
2783;DHT22;1399;47.072;15.452;2023-04-15T12:51:14;16.50;51.10
2783;DHT22;1399;47.072;15.452;2023-04-15T12:53:40;16.50;51.00
2783;DHT22;1399;47.072;15.452;2023-04-15T12:56:06;16.50;50.80
2783;DHT22;1399;47.072;15.452;2023-04-15T12:58:32;16.50;50.70
2783;DHT22;1399;47.072;15.452;2023-04-15T13:00:58;16.50;50.70
2783;DHT22;1399;47.072;15.452;2023-04-15T13:03:23;16.40;50.50
2783;DHT22;1399;47.072;15.452;2023-04-15T13:05:49;16.40;50.40
2783;DHT22;1399;47.072;15.452;2023-04-15T13:08:15;16.40;50.30
2783;DHT22;1399;47.072;15.452;2023-04-15T13:10:42;16.40;50.00
2783;DHT22;1399;47.072;15.452;2023-04-15T13:13:08;16.40;50.00
2783;DHT22;1399;47.072;15.452;2023-04-15T13:15:34;16.40;50.00
2783;DHT22;1399;47.072;15.452;2023-04-15T13:17:59;16.40;49.90
2783;DHT22;1399;47.072;15.452;2023-04-15T13:20:26;16.30;49.70
2783;DHT22;1399;47.072;15.452;2023-04-15T13:22:53;16.30;49.70
2783;DHT22;1399;47.072;15.452;2023-04-15T13:25:19;16.30;49.70
2783;DHT22;1399;47.072;15.452;2023-04-15T13:27:44;16.30;49.70
2783;DHT22;1399;47.072;15.452;2023-04-15T13:30:11;16.20;49.70
2783;DHT22;1399;47.072;15.452;2023-04-15T13:32:37;16.20;49.80
2783;DHT22;1399;47.072;15.452;2023-04-15T13:35:03;16.10;49.80
2783;DHT22;1399;47.072;15.452;2023-04-15T13:37:30;16.10;50.00
2783;DHT22;1399;47.072;15.452;2023-04-15T13:39:56;16.10;50.10
2783;DHT22;1399;47.072;15.452;2023-04-15T13:42:22;16.00;50.10
2783;DHT22;1399;47.072;15.452;2023-04-15T13:44:49;16.00;50.40
2783;DHT22;1399;47.072;15.452;2023-04-15T13:47:18;15.90;50.70
2783;DHT22;1399;47.072;15.452;2023-04-15T13:49:45;15.80;51.00
2783;DHT22;1399;47.072;15.452;2023-04-15T13:52:11;15.70;51.30
2783;DHT22;1399;47.072;15.452;2023-04-15T13:54:37;15.60;51.60
2783;DHT22;1399;47.072;15.452;2023-04-15T13:57:03;15.50;52.00
2783;DHT22;1399;47.072;15.452;2023-04-15T13:59:29;15.40;52.30
2783;DHT22;1399;47.072;15.452;2023-04-15T14:01:55;15.40;52.70
2783;DHT22;1399;47.072;15.452;2023-04-15T14:04:21;15.30;53.00
2783;DHT22;1399;47.072;15.452;2023-04-15T14:06:46;15.20;53.20
2783;DHT22;1399;47.072;15.452;2023-04-15T14:09:12;15.20;53.40
2783;DHT22;1399;47.072;15.452;2023-04-15T14:11:39;15.20;53.60
2783;DHT22;1399;47.072;15.452;2023-04-15T14:14:05;15.20;53.80
2783;DHT22;1399;47.072;15.452;2023-04-15T14:16:33;15.20;53.80
2783;DHT22;1399;47.072;15.452;2023-04-15T14:19:01;15.20;53.90
2783;DHT22;1399;47.072;15.452;2023-04-15T14:21:27;15.20;53.90
2783;DHT22;1399;47.072;15.452;2023-04-15T14:23:53;15.20;53.90
2783;DHT22;1399;47.072;15.452;2023-04-15T14:26:19;15.20;54.00
2783;DHT22;1399;47.072;15.452;2023-04-15T14:28:45;15.20;54.00
2783;DHT22;1399;47.072;15.452;2023-04-15T14:31:12;15.20;54.10
2783;DHT22;1399;47.072;15.452;2023-04-15T14:33:39;15.20;54.80
2783;DHT22;1399;47.072;15.452;2023-04-15T14:39:01;15.20;54.30
2783;DHT22;1399;47.072;15.452;2023-04-15T14:41:28;15.10;54.20
2783;DHT22;1399;47.072;15.452;2023-04-15T14:43:54;15.10;54.20
2783;DHT22;1399;47.072;15.452;2023-04-15T14:46:21;15.10;54.20
2783;DHT22;1399;47.072;15.452;2023-04-15T14:48:47;15.10;54.30
2783;DHT22;1399;47.072;15.452;2023-04-15T14:51:13;15.10;54.30
2783;DHT22;1399;47.072;15.452;2023-04-15T14:53:41;15.10;54.30
2783;DHT22;1399;47.072;15.452;2023-04-15T14:56:06;15.10;54.40
2783;DHT22;1399;47.072;15.452;2023-04-15T14:58:32;15.10;54.40
2783;DHT22;1399;47.072;15.452;2023-04-15T15:00:58;15.00;54.50
2783;DHT22;1399;47.072;15.452;2023-04-15T15:03:24;15.00;54.50
2783;DHT22;1399;47.072;15.452;2023-04-15T15:05:50;15.10;54.60
2783;DHT22;1399;47.072;15.452;2023-04-15T15:08:16;15.00;54.70
2783;DHT22;1399;47.072;15.452;2023-04-15T15:10:42;15.00;54.80
2783;DHT22;1399;47.072;15.452;2023-04-15T15:13:09;15.00;54.90
2783;DHT22;1399;47.072;15.452;2023-04-15T15:15:36;15.00;54.80
2783;DHT22;1399;47.072;15.452;2023-04-15T15:18:02;15.00;54.80
2783;DHT22;1399;47.072;15.452;2023-04-15T15:20:29;15.10;54.90
2783;DHT22;1399;47.072;15.452;2023-04-15T15:22:56;15.10;54.90
2783;DHT22;1399;47.072;15.452;2023-04-15T15:25:22;15.10;54.90
2783;DHT22;1399;47.072;15.452;2023-04-15T15:27:47;15.10;54.90
2783;DHT22;1399;47.072;15.452;2023-04-15T15:30:13;15.10;54.80
2783;DHT22;1399;47.072;15.452;2023-04-15T15:32:40;15.10;54.70
2783;DHT22;1399;47.072;15.452;2023-04-15T15:35:07;15.10;55.30
2783;DHT22;1399;47.072;15.452;2023-04-15T15:37:34;15.10;54.70
2783;DHT22;1399;47.072;15.452;2023-04-15T15:40:02;15.10;54.70
2783;DHT22;1399;47.072;15.452;2023-04-15T15:42:31;15.10;54.70
2783;DHT22;1399;47.072;15.452;2023-04-15T15:45:01;15.10;54.70
2783;DHT22;1399;47.072;15.452;2023-04-15T15:47:28;15.10;54.70
2783;DHT22;1399;47.072;15.452;2023-04-15T15:49:54;15.00;54.70
2783;DHT22;1399;47.072;15.452;2023-04-15T15:52:19;15.00;54.80
2783;DHT22;1399;47.072;15.452;2023-04-15T15:54:46;15.00;54.90
2783;DHT22;1399;47.072;15.452;2023-04-15T15:57:12;15.00;54.90